Time;durP1;ratioP1;P1;durP2;ratioP2;P2;SDS_P1;SDS_P2;PMS_P1;PMS_P2;Temp;Humidity;BMP_temperature;BMP_pressure;BME280_temperature;BME280_humidity;BME280_pressure;Samples;Min_cycle;Max_cycle;Signal;HPM_P1;HPM_P2
2022/05/29 00:02:25;;;;;;;3.03;2.90;;;22.10;55.80;;;;;;5053449;28;20444;-67
2022/05/29 00:04:52;;;;;;;2.67;2.63;;;22.10;55.80;;;;;;5053371;28;20444;-68
2022/05/29 00:07:20;;;;;;;2.97;2.90;;;22.10;55.80;;;;;;5053383;28;20946;-68
2022/05/29 00:09:49;;;;;;;2.77;2.77;;;22.00;55.70;;;;;;5053461;28;20484;-67
2022/05/29 00:12:17;;;;;;;2.80;2.70;;;22.00;55.80;;;;;;5053409;28;20448;-68
2022/05/29 00:14:44;;;;;;;2.70;2.70;;;22.00;55.80;;;;;;5053117;28;20440;-67
2022/05/29 00:17:11;;;;;;;2.70;2.70;;;22.00;55.80;;;;;;5053220;28;20471;-68
2022/05/29 00:19:38;;;;;;;2.40;2.40;;;22.00;55.90;;;;;;5053282;28;20483;-68
2022/05/29 00:22:05;;;;;;;2.70;2.70;;;22.00;55.90;;;;;;5053368;28;20447;-68
2022/05/29 00:24:34;;;;;;;2.57;2.57;;;22.00;55.90;;;;;;5053243;28;20454;-67
2022/05/29 00:27:00;;;;;;;2.70;2.70;;;22.00;55.90;;;;;;5053000;28;20826;-68
2022/05/29 00:29:27;;;;;;;2.50;2.50;;;22.00;55.90;;;;;;5052848;28;20476;-67
2022/05/29 00:31:54;;;;;;;2.83;2.70;;;22.00;55.90;;;;;;5053304;28;20623;-67
2022/05/29 00:34:21;;;;;;;2.87;2.77;;;22.00;56.00;;;;;;5053116;28;20813;-68
2022/05/29 00:36:48;;;;;;;3.13;2.97;;;22.00;56.00;;;;;;5052942;28;20451;-67
2022/05/29 00:39:18;;;;;;;2.63;2.50;;;22.00;56.00;;;;;;5052658;28;20475;-68
2022/05/29 00:41:46;;;;;;;2.60;2.60;;;22.00;56.10;;;;;;5052834;28;20467;-68
2022/05/29 00:44:16;;;;;;;2.70;2.60;;;22.00;56.10;;;;;;5052851;28;20444;-67
2022/05/29 00:46:45;;;;;;;2.70;2.70;;;21.90;56.10;;;;;;5052891;28;20455;-68
2022/05/29 00:49:13;;;;;;;3.40;3.20;;;21.90;56.10;;;;;;5052514;28;20444;-67
2022/05/29 00:51:43;;;;;;;2.80;2.80;;;21.90;56.20;;;;;;5052784;28;20444;-67
2022/05/29 00:54:10;;;;;;;2.67;2.67;;;21.90;56.20;;;;;;5052881;28;20447;-68
2022/05/29 00:56:39;;;;;;;3.00;2.90;;;21.90;56.20;;;;;;5052475;28;20939;-67
2022/05/29 00:59:11;;;;;;;2.70;2.70;;;21.90;56.20;;;;;;5052232;28;20454;-68
2022/05/29 01:01:38;;;;;;;2.60;2.60;;;21.90;56.20;;;;;;5052509;28;20475;-68
2022/05/29 01:04:05;;;;;;;2.70;2.53;;;21.90;56.20;;;;;;5052481;28;20440;-67
2022/05/29 01:06:32;;;;;;;3.07;2.97;;;21.90;56.30;;;;;;5052396;28;20951;-67
2022/05/29 01:09:00;;;;;;;3.23;3.13;;;21.80;56.30;;;;;;5051826;28;20454;-67
2022/05/29 01:11:38;;;;;;;2.47;2.47;;;21.80;56.30;;;;;;5052183;28;20860;-68
2022/05/29 01:14:18;;;;;;;2.93;2.73;;;21.80;56.30;;;;;;5052379;28;20448;-67
2022/05/29 01:16:56;;;;;;;2.83;2.73;;;21.80;56.40;;;;;;5052234;28;20816;-67
2022/05/29 01:19:41;;;;;;;2.73;2.73;;;21.80;56.40;;;;;;5051839;28;20447;-67
2022/05/29 01:22:33;;;;;;;3.10;3.10;;;21.80;56.40;;;;;;5052261;28;20441;-67
2022/05/29 01:25:36;;;;;;;2.40;2.40;;;21.80;56.50;;;;;;5052063;28;20444;-67
2022/05/29 01:28:11;;;;;;;2.70;2.67;;;21.80;56.50;;;;;;5051907;28;20436;-67
2022/05/29 01:30:43;;;;;;;3.17;3.17;;;21.80;56.60;;;;;;5051764;28;20490;-68
2022/05/29 01:33:19;;;;;;;2.53;2.53;;;21.80;56.60;;;;;;5051755;28;20467;-67
2022/05/29 01:35:51;;;;;;;2.70;2.70;;;21.70;56.60;;;;;;5052049;28;20451;-67
2022/05/29 01:38:25;;;;;;;2.70;2.70;;;21.70;56.50;;;;;;5051823;28;20812;-67
2022/05/29 01:40:58;;;;;;;2.80;2.80;;;21.80;56.70;;;;;;5051712;28;20462;-67
2022/05/29 01:43:29;;;;;;;2.90;2.90;;;21.70;56.60;;;;;;5051611;28;20947;-67
2022/05/29 01:46:01;;;;;;;3.10;3.00;;;21.70;56.60;;;;;;5051851;28;20470;-67
2022/05/29 01:48:43;;;;;;;3.10;3.00;;;21.70;56.70;;;;;;5051614;28;20451;-67
2022/05/29 01:51:15;;;;;;;3.20;3.10;;;21.70;56.70;;;;;;5051661;28;20487;-67
2022/05/29 01:53:44;;;;;;;2.70;2.70;;;21.70;56.80;;;;;;5051753;28;20444;-67
2022/05/29 01:56:17;;;;;;;3.13;3.03;;;21.70;56.80;;;;;;5051414;28;20441;-68
2022/05/29 01:58:51;;;;;;;3.17;3.07;;;21.70;56.80;;;;;;5051456;28;20432;-67
2022/05/29 02:01:20;;;;;;;3.00;2.90;;;21.70;56.80;;;;;;5051552;28;20951;-67
2022/05/29 02:03:51;;;;;;;2.87;2.87;;;21.70;56.80;;;;;;5051466;28;20444;-67
2022/05/29 02:06:23;;;;;;;3.00;3.00;;;21.60;56.80;;;;;;5051384;28;20444;-67
2022/05/29 02:08:55;;;;;;;3.10;3.10;;;21.70;56.90;;;;;;5051052;28;20510;-67
2022/05/29 02:11:24;;;;;;;2.80;2.80;;;21.60;56.80;;;;;;5051569;28;20852;-67
2022/05/29 02:13:57;;;;;;;3.03;2.93;;;21.60;56.80;;;;;;5051457;28;20447;-67
2022/05/29 02:16:30;;;;;;;3.00;2.90;;;21.60;56.90;;;;;;5051342;28;20452;-67
2022/05/29 02:19:02;;;;;;;2.90;2.70;;;21.60;56.90;;;;;;5051160;28;20448;-68
2022/05/29 02:21:33;;;;;;;3.37;3.27;;;21.60;56.90;;;;;;5051464;28;20460;-68
2022/05/29 02:24:04;;;;;;;3.10;3.10;;;21.60;56.90;;;;;;5051244;28;20447;-68
2022/05/29 02:26:36;;;;;;;2.70;2.60;;;21.60;57.00;;;;;;5051118;28;20452;-68
2022/05/29 02:29:08;;;;;;;3.10;3.10;;;21.60;57.00;;;;;;5051219;28;20471;-67
2022/05/29 02:31:42;;;;;;;2.60;2.60;;;21.60;57.00;;;;;;5051059;28;20495;-67
2022/05/29 02:34:16;;;;;;;2.60;2.60;;;21.60;57.00;;;;;;5051255;28;20444;-67
2022/05/29 02:36:51;;;;;;;3.37;3.27;;;21.60;57.00;;;;;;5051240;28;20443;-67
2022/05/29 02:39:39;;;;;;;2.97;2.90;;;21.60;57.00;;;;;;5050766;28;20444;-67
2022/05/29 02:42:16;;;;;;;3.30;3.30;;;21.60;57.10;;;;;;5051153;28;20475;-67
2022/05/29 02:44:50;;;;;;;2.73;2.73;;;21.60;57.10;;;;;;5051174;28;20689;-67
2022/05/29 02:47:36;;;;;;;2.97;2.90;;;21.60;57.10;;;;;;5050620;28;20952;-67
2022/05/29 02:50:32;;;;;;;2.93;2.93;;;21.60;57.10;;;;;;5050919;28;20483;-67
2022/05/29 02:53:10;;;;;;;2.60;2.60;;;21.50;57.20;;;;;;5050991;28;20835;-67
2022/05/29 02:55:37;;;;;;;3.00;3.00;;;21.60;57.30;;;;;;5051086;28;20465;-67
2022/05/29 02:58:08;;;;;;;3.20;3.10;;;21.50;57.20;;;;;;5050740;28;20451;-68
2022/05/29 03:00:54;;;;;;;3.07;2.87;;;21.60;57.30;;;;;;5050610;28;20995;-67
2022/05/29 03:03:31;;;;;;;2.80;2.80;;;21.50;57.30;;;;;;5051073;28;20448;-68
2022/05/29 03:06:08;;;;;;;2.90;2.90;;;21.50;57.30;;;;;;5050966;28;20451;-68
2022/05/29 03:08:49;;;;;;;2.73;2.73;;;21.50;57.30;;;;;;5050740;28;20459;-67
2022/05/29 03:11:27;;;;;;;3.00;3.00;;;21.50;57.30;;;;;;5050726;28;20483;-67
2022/05/29 03:14:03;;;;;;;3.13;3.03;;;21.50;57.40;;;;;;5050822;28;20444;-67
2022/05/29 03:16:42;;;;;;;3.03;2.93;;;21.50;57.40;;;;;;5051079;28;20450;-67
2022/05/29 03:19:21;;;;;;;2.90;2.80;;;21.50;57.40;;;;;;5067952;28;20982;-68
2022/05/29 03:21:56;;;;;;;3.27;3.17;;;21.50;57.50;;;;;;5074538;28;20447;-67
2022/05/29 03:24:28;;;;;;;3.20;3.10;;;21.50;57.40;;;;;;5074336;28;20449;-67
2022/05/29 03:27:03;;;;;;;3.47;3.37;;;21.50;57.50;;;;;;5074225;28;20550;-67
2022/05/29 03:29:37;;;;;;;3.37;3.27;;;21.40;57.40;;;;;;5073548;28;20442;-67
2022/05/29 03:32:08;;;;;;;3.13;3.03;;;21.50;57.60;;;;;;5074272;28;20565;-67
2022/05/29 03:34:35;;;;;;;3.13;3.03;;;21.50;57.60;;;;;;5074214;28;20454;-68
2022/05/29 03:37:02;;;;;;;3.13;3.13;;;21.40;57.50;;;;;;5073918;28;20444;-68
2022/05/29 03:39:29;;;;;;;2.90;2.90;;;21.40;57.50;;;;;;5073252;28;20444;-68
2022/05/29 03:41:56;;;;;;;3.23;3.13;;;21.40;57.60;;;;;;5074077;28;20451;-67
2022/05/29 03:44:24;;;;;;;2.97;2.97;;;21.40;57.60;;;;;;5074020;28;20812;-67
2022/05/29 03:46:51;;;;;;;3.10;3.10;;;21.40;57.70;;;;;;5073798;28;20446;-68
2022/05/29 03:49:21;;;;;;;3.10;3.00;;;21.40;57.60;;;;;;5073824;28;20435;-67
2022/05/29 03:51:49;;;;;;;3.00;2.90;;;21.40;57.60;;;;;;5066708;28;20472;-67
2022/05/29 03:54:16;;;;;;;3.00;3.00;;;21.40;57.70;;;;;;5053928;28;20444;-68
2022/05/29 03:56:42;;;;;;;3.00;2.90;;;21.40;57.70;;;;;;5053735;28;20462;-67
2022/05/29 03:59:09;;;;;;;3.17;3.10;;;21.40;57.70;;;;;;5053643;28;20451;-68
2022/05/29 04:01:37;;;;;;;2.80;2.80;;;21.40;57.70;;;;;;5053632;28;20467;-67
2022/05/29 04:04:05;;;;;;;2.87;2.87;;;21.40;57.70;;;;;;5053982;28;20831;-68
2022/05/29 04:06:34;;;;;;;2.80;2.80;;;21.40;57.70;;;;;;5053589;28;20440;-67
2022/05/29 04:12:05;;;;;;;2.80;2.70;;;21.40;57.70;;;;;;5053630;28;20483;-68
2022/05/29 04:14:32;;;;;;;2.83;2.73;;;21.40;57.70;;;;;;5053609;28;20639;-68
2022/05/29 04:16:59;;;;;;;3.90;3.80;;;21.40;58.10;;;;;;5066095;28;20447;-67
2022/05/29 04:19:26;;;;;;;2.90;2.90;;;21.40;58.60;;;;;;5073185;28;20446;-67
2022/05/29 04:21:54;;;;;;;3.10;3.00;;;21.50;58.60;;;;;;5073218;28;20443;-66
2022/05/29 04:24:21;;;;;;;3.33;3.20;;;21.50;58.60;;;;;;5068346;28;20456;-66
2022/05/29 04:26:48;;;;;;;3.00;2.97;;;21.50;58.80;;;;;;5052519;28;20448;-67
2022/05/29 04:29:15;;;;;;;2.80;2.80;;;21.50;59.00;;;;;;5053565;28;20451;-67
2022/05/29 04:32:59;;;;;;;3.30;3.20;;;21.50;59.00;;;;;;5094970;22;20499;-67
2022/05/29 04:34:30;;;;;;;3.40;3.30;;;21.60;59.30;;;;;;5073213;28;20474;-68
2022/05/29 04:36:58;;;;;;;3.43;3.33;;;21.60;59.40;;;;;;5073433;28;20447;-68
2022/05/29 04:39:26;;;;;;;3.13;3.03;;;21.50;59.40;;;;;;5073428;28;20443;-68
2022/05/29 04:41:53;;;;;;;3.90;3.80;;;21.50;59.40;;;;;;5054527;28;20456;-68
2022/05/29 04:44:20;;;;;;;3.30;3.20;;;21.50;59.40;;;;;;5053533;28;20436;-68
2022/05/29 04:46:47;;;;;;;3.43;3.33;;;21.60;59.70;;;;;;5042487;28;20454;-68
2022/05/29 04:49:13;;;;;;;3.10;3.10;;;21.60;60.10;;;;;;5033371;28;20448;-68
2022/05/29 04:51:40;;;;;;;3.20;3.20;;;21.60;60.60;;;;;;5033298;28;20855;-69
2022/05/29 04:54:08;;;;;;;3.60;3.40;;;21.60;60.70;;;;;;5033258;28;20450;-68
2022/05/29 04:56:35;;;;;;;3.80;3.60;;;21.60;60.60;;;;;;5033227;28;20928;-69
2022/05/29 04:59:02;;;;;;;3.13;3.03;;;21.60;60.70;;;;;;5047926;28;20813;-68
2022/05/29 05:01:28;;;;;;;3.20;3.20;;;21.60;60.60;;;;;;5053088;28;20855;-68
2022/05/29 05:03:55;;;;;;;3.60;3.50;;;21.60;60.70;;;;;;5052864;28;20451;-68
2022/05/29 05:06:22;;;;;;;3.30;3.20;;;21.70;60.70;;;;;;5040605;28;20481;-68
2022/05/29 05:08:49;;;;;;;3.43;3.33;;;21.70;60.70;;;;;;5032460;28;20452;-68
2022/05/29 05:11:17;;;;;;;3.50;3.50;;;21.70;60.70;;;;;;5032497;28;20575;-68
2022/05/29 05:13:44;;;;;;;3.50;3.40;;;21.70;60.60;;;;;;5032798;28;20811;-69
2022/05/29 05:16:10;;;;;;;3.33;3.23;;;21.70;60.60;;;;;;5040288;28;20448;-69
2022/05/29 05:18:37;;;;;;;3.57;3.47;;;21.70;60.40;;;;;;5052140;28;20460;-67
2022/05/29 05:21:06;;;;;;;3.63;3.53;;;21.70;60.20;;;;;;5052081;28;20543;-67
2022/05/29 05:23:34;;;;;;;1.20;1.20;;;21.70;60.00;;;;;;5041733;28;20473;-68
2022/05/29 05:26:01;;;;;;;1.60;1.60;;;21.70;60.50;;;;;;5037618;28;20832;-69
2022/05/29 05:28:30;;;;;;;2.70;2.27;;;21.80;60.00;;;;;;5052191;28;20441;-72
2022/05/29 05:30:56;;;;;;;1.80;1.70;;;21.80;60.10;;;;;;5051128;28;20491;-71
2022/05/29 05:33:25;;;;;;;2.27;2.27;;;21.80;60.00;;;;;;5037123;28;20453;-71
2022/05/29 05:35:51;;;;;;;2.03;1.93;;;21.90;60.10;;;;;;5038557;28;20573;-67
2022/05/29 05:38:18;;;;;;;2.70;2.60;;;21.80;60.00;;;;;;5033367;28;20805;-68
2022/05/29 05:40:45;;;;;;;3.07;3.03;;;21.80;60.00;;;;;;5032470;28;20518;-68
2022/05/29 05:43:12;;;;;;;3.40;3.30;;;21.80;60.30;;;;;;5035413;28;20453;-68
2022/05/29 05:45:43;;;;;;;2.90;2.70;;;21.80;61.40;;;;;;5037346;28;20452;-66
2022/05/29 05:48:10;;;;;;;3.60;3.30;;;21.80;60.20;;;;;;5051837;28;20459;-68
2022/05/29 05:50:38;;;;;;;3.57;3.27;;;21.80;60.30;;;;;;5042344;28;20853;-66
2022/05/29 05:53:05;;;;;;;3.87;3.50;;;21.90;60.30;;;;;;5031913;28;20815;-68
2022/05/29 05:55:32;;;;;;;4.80;3.73;;;21.90;60.30;;;;;;5031946;28;20495;-66
2022/05/29 05:57:59;;;;;;;4.03;3.73;;;21.90;60.20;;;;;;5031840;28;20449;-71
2022/05/29 06:00:26;;;;;;;5.17;3.57;;;21.90;60.00;;;;;;5031786;28;20461;-68
2022/05/29 06:02:54;;;;;;;6.57;4.93;;;21.90;60.50;;;;;;5041851;28;20440;-67
2022/05/29 06:05:21;;;;;;;5.63;4.37;;;21.90;60.50;;;;;;5051752;28;20965;-68
2022/05/29 06:07:50;;;;;;;4.90;4.53;;;21.90;60.60;;;;;;5051776;28;20538;-68
2022/05/29 06:10:18;;;;;;;9.82;6.25;;;22.00;60.80;;;;;;5051317;28;20440;-67
2022/05/29 06:12:45;;;;;;;5.93;5.43;;;21.90;61.00;;;;;;5051782;28;20608;-67
2022/05/29 06:15:12;;;;;;;6.00;5.53;;;22.00;60.40;;;;;;5051765;28;20471;-68
2022/05/29 06:17:39;;;;;;;7.93;7.43;;;21.90;60.00;;;;;;5051321;28;20448;-66
2022/05/29 06:20:09;;;;;;;6.47;6.07;;;22.00;60.20;;;;;;5051496;28;20569;-66
2022/05/29 06:22:37;;;;;;;6.67;6.27;;;22.00;60.30;;;;;;5035469;28;20453;-66
2022/05/29 06:25:05;;;;;;;6.77;6.30;;;21.90;60.20;;;;;;5050424;28;20448;-65
2022/05/29 06:27:35;;;;;;;6.13;5.80;;;21.90;60.20;;;;;;5052921;28;20826;-64
2022/05/29 06:30:02;;;;;;;6.17;5.80;;;21.90;60.20;;;;;;5050585;28;20468;-66
2022/05/29 06:32:29;;;;;;;6.93;6.63;;;21.90;60.30;;;;;;5034475;28;20481;-64
2022/05/29 06:34:56;;;;;;;6.60;6.20;;;21.90;60.50;;;;;;5032516;28;20532;-65
2022/05/29 06:37:25;;;;;;;7.33;6.83;;;22.00;61.20;;;;;;5047310;28;20962;-65
2022/05/29 06:39:52;;;;;;;6.07;5.70;;;22.00;61.60;;;;;;5033155;28;20450;-65
2022/05/29 06:42:19;;;;;;;6.77;6.40;;;22.00;61.70;;;;;;5041853;28;20786;-66
2022/05/29 06:44:46;;;;;;;5.90;5.70;;;22.00;61.50;;;;;;5040434;28;20894;-64
2022/05/29 06:47:14;;;;;;;5.90;5.70;;;22.00;61.60;;;;;;5044226;28;20448;-65
2022/05/29 06:49:41;;;;;;;5.77;5.57;;;22.00;61.60;;;;;;5032933;28;20457;-64
2022/05/29 06:52:09;;;;;;;6.47;6.10;;;22.00;61.80;;;;;;5041323;28;20664;-64
2022/05/29 06:54:39;;;;;;;6.33;6.03;;;22.10;62.00;;;;;;5043157;28;21021;-63
2022/05/29 06:57:07;;;;;;;7.00;6.57;;;22.10;61.90;;;;;;5046867;28;20449;-65
2022/05/29 07:06:58;;;;;;;6.63;6.43;;;22.10;62.00;;;;;;5035512;28;20472;-65
2022/05/29 07:08:01;;;;;;;6.50;6.20;;;22.10;62.10;;;;;;5046162;28;20868;-65
2022/05/29 07:10:31;;;;;;;6.90;6.60;;;22.10;62.20;;;;;;5035157;28;20464;-65
2022/05/29 07:13:00;;;;;;;6.77;6.50;;;22.10;62.10;;;;;;5048350;28;20476;-65
2022/05/29 07:15:27;;;;;;;7.40;7.10;;;22.10;62.10;;;;;;5055203;28;20953;-65
2022/05/29 07:17:54;;;;;;;6.70;6.50;;;22.10;62.20;;;;;;5054998;28;20444;-65
2022/05/29 07:20:21;;;;;;;6.60;6.30;;;22.10;62.20;;;;;;5054541;28;20551;-65
2022/05/29 07:22:48;;;;;;;6.37;6.17;;;22.10;61.90;;;;;;5053996;28;20440;-64
2022/05/29 07:25:15;;;;;;;6.50;6.20;;;22.10;62.10;;;;;;5037331;28;20738;-65
2022/05/29 07:27:43;;;;;;;6.87;6.47;;;22.10;61.90;;;;;;5048630;28;20448;-65
2022/05/29 07:30:11;;;;;;;6.60;6.40;;;22.10;62.20;;;;;;5054413;28;20475;-60
2022/05/29 07:32:37;;;;;;;5.80;5.70;;;22.10;61.80;;;;;;5042180;28;21022;-65
2022/05/29 07:35:05;;;;;;;6.63;6.30;;;22.00;61.50;;;;;;5054556;28;20463;-65
2022/05/29 07:37:32;;;;;;;6.83;6.63;;;22.10;62.00;;;;;;5044629;28;20528;-67
2022/05/29 07:40:00;;;;;;;7.67;7.30;;;22.10;62.20;;;;;;5042585;28;20468;-68
2022/05/29 07:45:13;;;;;;;6.50;6.30;;;22.00;62.00;;;;;;5036183;28;20447;-67
2022/05/29 07:47:42;;;;;;;6.50;6.20;;;22.00;62.00;;;;;;5052341;28;20451;-66
2022/05/29 07:50:13;;;;;;;6.63;6.23;;;22.00;62.00;;;;;;5052961;28;20557;-66
2022/05/29 07:52:40;;;;;;;6.90;6.60;;;22.00;62.00;;;;;;5036365;28;20477;-66
2022/05/29 07:55:08;;;;;;;6.33;6.20;;;22.00;62.20;;;;;;5045064;28;20452;-65
2022/05/29 07:57:36;;;;;;;6.73;6.50;;;22.00;62.10;;;;;;5046352;28;20452;-64
2022/05/29 08:00:03;;;;;;;6.07;5.97;;;22.00;62.20;;;;;;5053908;28;20475;-65
2022/05/29 08:02:34;;;;;;;5.70;5.60;;;22.00;62.10;;;;;;5036818;28;20451;-66
2022/05/29 08:05:01;;;;;;;5.93;5.73;;;22.10;62.40;;;;;;5051546;28;20536;-63
2022/05/29 08:07:28;;;;;;;6.50;6.30;;;22.10;62.30;;;;;;5046856;28;20454;-62
2022/05/29 08:09:55;;;;;;;6.57;6.27;;;22.10;62.00;;;;;;5041269;28;20452;-62
2022/05/29 08:12:22;;;;;;;6.20;6.00;;;22.10;62.10;;;;;;5043215;28;20570;-62
2022/05/29 08:14:49;;;;;;;6.10;5.90;;;22.20;62.30;;;;;;5046592;28;20527;-69
2022/05/29 08:17:17;;;;;;;6.00;5.80;;;22.20;62.30;;;;;;5043984;28;20445;-67
2022/05/29 08:19:45;;;;;;;6.83;6.53;;;22.10;61.70;;;;;;5033945;28;20528;-65
2022/05/29 08:22:12;;;;;;;6.33;6.00;;;22.10;61.80;;;;;;5040622;28;20451;-65
2022/05/29 08:32:59;;;;;;;6.53;6.27;;;22.10;61.70;;;;;;5051846;28;20486;-65
2022/05/29 08:35:28;;;;;;;6.63;6.43;;;22.10;61.30;;;;;;5039561;28;20445;-64
2022/05/29 08:37:56;;;;;;;6.80;6.60;;;22.10;61.90;;;;;;5045836;28;20453;-64
2022/05/29 08:40:24;;;;;;;6.60;6.30;;;22.10;62.20;;;;;;5051606;28;21213;-64
2022/05/29 08:42:51;;;;;;;11.33;11.03;;;22.20;62.40;;;;;;5046641;28;20446;-64
2022/05/29 08:45:18;;;;;;;12.30;11.90;;;22.10;62.30;;;;;;5041263;28;20441;-64
2022/05/29 08:47:47;;;;;;;12.00;11.60;;;22.20;63.10;;;;;;5032878;28;20488;-65
2022/05/29 08:50:20;;;;;;;12.60;12.10;;;22.20;61.90;;;;;;5032954;28;20469;-64
2022/05/29 08:53:02;;;;;;;11.37;11.07;;;22.20;62.10;;;;;;5032910;28;20491;-63
2022/05/29 08:55:32;;;;;;;11.50;11.07;;;22.30;62.50;;;;;;5033039;28;20527;-63
2022/05/29 08:58:13;;;;;;;11.60;11.00;;;22.30;62.30;;;;;;5049778;28;20452;-62
2022/05/29 09:00:52;;;;;;;12.13;11.73;;;22.30;62.20;;;;;;5052557;28;20511;-66
2022/05/29 09:03:45;;;;;;;11.50;11.20;;;22.20;61.70;;;;;;5052746;28;20447;-64
2022/05/29 09:06:17;;;;;;;13.23;12.57;;;22.20;61.90;;;;;;5052597;28;21077;-64
2022/05/29 09:08:50;;;;;;;11.70;11.40;;;22.20;62.10;;;;;;5052410;28;20444;-65
2022/05/29 09:11:21;;;;;;;12.77;12.37;;;22.20;62.00;;;;;;5039777;28;20465;-64
2022/05/29 09:13:53;;;;;;;12.27;11.87;;;22.20;61.80;;;;;;5032432;28;20492;-63
2022/05/29 09:16:23;;;;;;;11.73;11.43;;;22.20;61.90;;;;;;5031529;28;20910;-66
2022/05/29 09:19:06;;;;;;;12.40;12.00;;;22.20;61.80;;;;;;5037606;28;20448;-67
2022/05/29 09:21:48;;;;;;;11.33;11.03;;;22.20;61.80;;;;;;5052469;28;20479;-66
2022/05/29 09:24:28;;;;;;;11.53;11.20;;;22.20;61.80;;;;;;5052302;28;20433;-65
2022/05/29 09:26:56;;;;;;;11.60;11.30;;;22.20;61.80;;;;;;5052417;28;20458;-66
2022/05/29 09:29:23;;;;;;;11.63;11.30;;;22.10;61.80;;;;;;5052225;28;20467;-62
2022/05/29 09:31:50;;;;;;;11.37;10.97;;;22.10;62.00;;;;;;5052165;28;21029;-58
2022/05/29 09:34:17;;;;;;;10.90;10.60;;;22.10;62.10;;;;;;5052130;28;20471;-64
2022/05/29 09:36:55;;;;;;;11.20;10.80;;;22.10;62.30;;;;;;5052283;28;20448;-64
2022/05/29 09:39:28;;;;;;;10.70;10.40;;;22.10;61.90;;;;;;5051994;28;20452;-66
2022/05/29 09:42:04;;;;;;;10.60;10.30;;;22.10;62.50;;;;;;5052080;28;20487;-66
2022/05/29 09:44:31;;;;;;;11.10;10.60;;;22.10;62.40;;;;;;5052136;28;20471;-66
2022/05/29 09:49:40;;;;;;;11.53;11.00;;;22.10;62.50;;;;;;5043738;28;20986;-66
2022/05/29 09:50:03;;;;;;;10.80;10.50;;;22.10;63.20;;;;;;5032074;28;20445;-67
2022/05/29 09:52:34;;;;;;;11.20;10.90;;;22.10;62.60;;;;;;5039635;28;20565;-65
2022/05/29 09:55:07;;;;;;;10.70;10.40;;;22.10;62.70;;;;;;5051978;28;20444;-65
2022/05/29 09:57:38;;;;;;;11.50;11.10;;;22.10;62.80;;;;;;5051677;28;20444;-64
2022/05/29 10:00:09;;;;;;;11.87;11.57;;;22.10;62.90;;;;;;5051677;28;20479;-65
2022/05/29 10:02:39;;;;;;;11.60;10.97;;;22.20;63.20;;;;;;5043621;28;20460;-65
2022/05/29 10:05:10;;;;;;;10.50;10.30;;;22.10;63.00;;;;;;5031907;28;20476;-65
2022/05/29 10:07:40;;;;;;;11.83;11.47;;;22.10;63.40;;;;;;5031620;28;20453;-67
2022/05/29 10:10:12;;;;;;;11.70;11.37;;;22.10;63.30;;;;;;5031876;28;20472;-68
2022/05/29 10:12:42;;;;;;;11.37;10.97;;;22.20;64.00;;;;;;5031925;28;20476;-63
2022/05/29 10:15:35;;;;;;;12.20;11.70;;;22.10;63.80;;;;;;5031799;28;20963;-65
2022/05/29 10:18:05;;;;;;;10.47;10.17;;;22.20;63.50;;;;;;5031761;28;20456;-63
2022/05/29 10:20:35;;;;;;;11.17;10.60;;;22.20;63.50;;;;;;5031812;28;20731;-67
2022/05/29 10:23:04;;;;;;;11.67;11.07;;;22.20;63.40;;;;;;5031896;28;21028;-65
2022/05/29 10:25:34;;;;;;;11.30;10.87;;;22.10;63.20;;;;;;5031849;28;20456;-65
2022/05/29 10:28:05;;;;;;;11.63;11.33;;;22.10;63.20;;;;;;5032454;28;20936;-65
2022/05/29 10:30:37;;;;;;;12.77;12.37;;;22.20;63.30;;;;;;5042940;28;20476;-69
2022/05/29 10:33:18;;;;;;;11.00;10.70;;;22.20;63.10;;;;;;5047083;28;20495;-69
2022/05/29 10:35:46;;;;;;;10.80;10.50;;;22.20;63.10;;;;;;5035991;28;20451;-66
2022/05/29 10:38:26;;;;;;;11.47;11.10;;;22.20;63.60;;;;;;5035813;28;20515;-67
2022/05/29 10:40:55;;;;;;;11.53;11.03;;;22.20;63.70;;;;;;5036035;28;20468;-67
2022/05/29 10:43:36;;;;;;;11.40;11.10;;;22.10;64.00;;;;;;5035717;28;20441;-67
2022/05/29 10:46:05;;;;;;;10.90;10.60;;;22.10;64.70;;;;;;5035809;28;20863;-67
2022/05/29 10:48:52;;;;;;;11.13;10.73;;;22.10;64.00;;;;;;5044745;28;20509;-65
2022/05/29 10:51:23;;;;;;;11.13;10.83;;;22.10;63.90;;;;;;5035902;28;20460;-65
2022/05/29 10:54:05;;;;;;;11.40;11.10;;;22.10;63.90;;;;;;5035572;28;20508;-63
2022/05/29 10:56:45;;;;;;;11.50;11.20;;;22.10;64.20;;;;;;5035795;28;20963;-65
2022/05/29 10:59:27;;;;;;;11.50;11.17;;;22.10;63.90;;;;;;5035536;28;20480;-65
2022/05/29 11:05:19;;;;;;;12.00;11.50;;;22.20;63.80;;;;;;5035399;28;20420;-65
2022/05/29 11:08:01;;;;;;;11.60;11.20;;;22.10;64.70;;;;;;5035229;28;20951;-66
2022/05/29 11:10:47;;;;;;;12.60;12.00;;;22.10;65.00;;;;;;5035659;28;20526;-65
2022/05/29 11:13:26;;;;;;;12.80;12.30;;;22.10;68.80;;;;;;5035305;28;20480;-65
2022/05/29 11:16:06;;;;;;;12.20;11.67;;;22.10;69.60;;;;;;5035440;28;20526;-65
2022/05/29 11:18:52;;;;;;;12.23;11.83;;;22.10;70.60;;;;;;5034918;28;20448;-65
2022/05/29 11:21:27;;;;;;;12.73;12.23;;;22.10;70.60;;;;;;5035186;28;20712;-65
2022/05/29 11:24:07;;;;;;;11.40;11.07;;;22.10;69.70;;;;;;5035110;28;20459;-65
2022/05/29 11:26:48;;;;;;;13.27;12.87;;;22.10;68.60;;;;;;5034928;28;20959;-65
2022/05/29 11:29:49;;;;;;;11.60;11.30;;;22.20;68.30;;;;;;5035428;28;20452;-65
2022/05/29 11:32:27;;;;;;;12.53;12.23;;;22.20;67.40;;;;;;5034832;28;20460;-67
2022/05/29 11:35:08;;;;;;;11.93;11.53;;;22.20;67.10;;;;;;5034716;28;20540;-65
2022/05/29 11:37:52;;;;;;;12.50;12.00;;;22.20;66.80;;;;;;5035064;28;20494;-66
2022/05/29 11:40:22;;;;;;;12.20;11.70;;;22.20;66.70;;;;;;5033788;28;20469;-67
2022/05/29 11:42:55;;;;;;;11.63;11.33;;;22.20;66.70;;;;;;5035680;28;20513;-68
2022/05/29 11:51:07;;;;;;;12.47;12.03;;;22.20;66.70;;;;;;5035148;28;20444;-67
2022/05/29 11:51:16;;;;;;;12.70;12.20;;;22.20;67.60;;;;;;5034456;28;20963;-65
2022/05/29 11:53:47;;;;;;;12.53;12.13;;;22.20;67.30;;;;;;5034252;28;20830;-65
2022/05/29 11:56:18;;;;;;;12.50;12.20;;;22.20;67.10;;;;;;5034047;28;20453;-65
2022/05/29 11:58:50;;;;;;;11.93;11.60;;;22.20;67.10;;;;;;5034093;28;20449;-66
2022/05/29 12:01:23;;;;;;;12.07;11.60;;;22.20;67.20;;;;;;5034012;28;20465;-65
2022/05/29 12:03:56;;;;;;;11.80;11.50;;;22.20;67.20;;;;;;5033966;28;20811;-65
2022/05/29 12:06:28;;;;;;;11.30;11.00;;;22.20;67.50;;;;;;5034000;28;20524;-65
2022/05/29 12:08:59;;;;;;;11.20;10.90;;;22.20;67.60;;;;;;5033864;28;20452;-65
2022/05/29 12:11:36;;;;;;;11.00;10.70;;;22.20;67.80;;;;;;5034019;28;20707;-67
2022/05/29 12:14:09;;;;;;;12.20;11.70;;;22.20;67.50;;;;;;5033947;28;20481;-68
2022/05/29 12:16:40;;;;;;;11.83;11.53;;;22.20;67.10;;;;;;5034405;28;20453;-66
2022/05/29 12:19:12;;;;;;;11.33;10.93;;;22.20;67.10;;;;;;5034417;28;20444;-67
2022/05/29 12:21:45;;;;;;;11.27;10.97;;;22.20;67.10;;;;;;5034230;28;20957;-66
2022/05/29 12:24:17;;;;;;;11.33;10.93;;;22.20;67.20;;;;;;5034068;28;20442;-66
2022/05/29 12:26:49;;;;;;;11.20;10.77;;;22.20;67.20;;;;;;5033976;28;20535;-66
2022/05/29 12:29:20;;;;;;;11.70;11.40;;;22.20;67.10;;;;;;5034009;28;20788;-66
2022/05/29 12:31:54;;;;;;;11.00;10.70;;;22.20;67.10;;;;;;5033638;28;20556;-65
2022/05/29 12:34:25;;;;;;;11.50;11.20;;;22.30;67.10;;;;;;5033381;28;20481;-67
2022/05/29 12:37:15;;;;;;;11.00;10.60;;;22.30;67.00;;;;;;5033195;28;20452;-65
2022/05/29 12:40:05;;;;;;;11.10;10.80;;;22.20;67.80;;;;;;5032966;28;20835;-65
2022/05/29 12:42:48;;;;;;;10.60;10.30;;;22.30;68.60;;;;;;5033152;28;20441;-66
2022/05/29 12:45:38;;;;;;;10.80;10.50;;;22.30;68.30;;;;;;5033092;28;20449;-66
2022/05/29 12:48:45;;;;;;;10.50;10.20;;;22.30;67.90;;;;;;5032763;28;20785;-66
2022/05/29 12:51:32;;;;;;;11.30;11.00;;;22.30;67.60;;;;;;4990956;28;20467;-65
2022/05/29 12:54:31;;;;;;;11.73;11.33;;;22.30;67.10;;;;;;5031266;28;21011;-65
2022/05/29 12:57:40;;;;;;;12.60;11.93;;;22.40;68.50;;;;;;5033017;28;20473;-66
2022/05/29 13:00:26;;;;;;;14.03;13.40;;;22.40;68.60;;;;;;5027586;28;20469;-65
2022/05/29 13:03:41;;;;;;;13.33;12.67;;;22.50;69.90;;;;;;5032868;28;20441;-66
2022/05/29 13:07:01;;;;;;;13.20;12.30;;;22.50;73.30;;;;;;4991197;28;20791;-63
2022/05/29 13:09:53;;;;;;;13.73;13.20;;;22.50;78.50;;;;;;5030142;28;20832;-64
2022/05/29 13:12:25;;;;;;;16.23;14.53;;;22.50;77.50;;;;;;5032942;28;20457;-64
2022/05/29 13:14:56;;;;;;;13.43;12.53;;;22.60;78.40;;;;;;5032805;28;20492;-64
2022/05/29 13:17:25;;;;;;;14.07;13.07;;;22.60;80.20;;;;;;5032938;28;20456;-66
2022/05/29 13:20:11;;;;;;;15.20;14.10;;;22.60;80.50;;;;;;5032904;28;20882;-65
2022/05/29 13:22:54;;;;;;;14.63;13.80;;;22.60;79.60;;;;;;5032954;28;20449;-66
2022/05/29 13:25:25;;;;;;;14.37;13.57;;;22.70;79.90;;;;;;5032969;28;20445;-64
2022/05/29 13:27:53;;;;;;;14.33;13.40;;;22.70;80.00;;;;;;5032819;28;20791;-65
2022/05/29 13:30:58;;;;;;;15.03;13.97;;;22.70;80.30;;;;;;5032754;28;20559;-63
2022/05/29 13:33:50;;;;;;;14.50;13.13;;;22.70;80.00;;;;;;5032600;28;20925;-62
2022/05/29 13:37:06;;;;;;;14.07;13.13;;;22.80;79.30;;;;;;5032674;28;20928;-63